sensor_id;sensor_type;location;lat;lon;timestamp;P1;durP1;ratioP1;P2;durP2;ratioP2
1569;SDS011;778;50.120;8.698;2024-03-02T00:01:15;10.27;;;8.87;;
1569;SDS011;778;50.120;8.698;2024-03-02T00:03:44;11.60;;;8.97;;
1569;SDS011;778;50.120;8.698;2024-03-02T00:06:13;10.93;;;9.60;;
1569;SDS011;778;50.120;8.698;2024-03-02T00:08:43;10.77;;;9.07;;
1569;SDS011;778;50.120;8.698;2024-03-02T00:11:12;10.80;;;9.70;;
1569;SDS011;778;50.120;8.698;2024-03-02T00:13:42;11.60;;;9.13;;
1569;SDS011;778;50.120;8.698;2024-03-02T00:16:11;15.13;;;9.97;;
1569;SDS011;778;50.120;8.698;2024-03-02T00:18:40;12.30;;;10.17;;
1569;SDS011;778;50.120;8.698;2024-03-02T00:21:09;12.63;;;11.30;;
1569;SDS011;778;50.120;8.698;2024-03-02T00:23:41;11.70;;;10.50;;
1569;SDS011;778;50.120;8.698;2024-03-02T00:28:40;10.83;;;9.73;;
1569;SDS011;778;50.120;8.698;2024-03-02T00:31:10;12.80;;;10.70;;
1569;SDS011;778;50.120;8.698;2024-03-02T00:33:41;11.93;;;10.57;;
1569;SDS011;778;50.120;8.698;2024-03-02T00:36:11;14.90;;;10.47;;
1569;SDS011;778;50.120;8.698;2024-03-02T00:38:44;15.83;;;12.10;;
1569;SDS011;778;50.120;8.698;2024-03-02T00:41:16;12.33;;;10.33;;
1569;SDS011;778;50.120;8.698;2024-03-02T00:43:47;13.63;;;10.87;;
1569;SDS011;778;50.120;8.698;2024-03-02T00:46:20;13.40;;;12.00;;
1569;SDS011;778;50.120;8.698;2024-03-02T00:48:51;13.33;;;11.77;;
1569;SDS011;778;50.120;8.698;2024-03-02T00:51:24;13.50;;;11.50;;
1569;SDS011;778;50.120;8.698;2024-03-02T00:54:00;18.13;;;14.63;;
1569;SDS011;778;50.120;8.698;2024-03-02T00:56:31;15.73;;;12.47;;
1569;SDS011;778;50.120;8.698;2024-03-02T00:59:01;15.07;;;12.40;;
1569;SDS011;778;50.120;8.698;2024-03-02T01:01:30;16.00;;;12.50;;
1569;SDS011;778;50.120;8.698;2024-03-02T01:03:59;15.07;;;13.07;;
1569;SDS011;778;50.120;8.698;2024-03-02T01:06:28;15.07;;;13.57;;
1569;SDS011;778;50.120;8.698;2024-03-02T01:08:58;14.90;;;13.07;;
1569;SDS011;778;50.120;8.698;2024-03-02T01:11:27;15.17;;;13.23;;
1569;SDS011;778;50.120;8.698;2024-03-02T01:13:56;15.20;;;13.70;;
1569;SDS011;778;50.120;8.698;2024-03-02T01:16:25;17.90;;;13.93;;
1569;SDS011;778;50.120;8.698;2024-03-02T01:18:54;18.43;;;14.70;;
1569;SDS011;778;50.120;8.698;2024-03-02T01:21:23;14.77;;;13.13;;
1569;SDS011;778;50.120;8.698;2024-03-02T01:23:52;17.10;;;13.83;;
1569;SDS011;778;50.120;8.698;2024-03-02T01:26:22;15.07;;;13.47;;
1569;SDS011;778;50.120;8.698;2024-03-02T01:28:51;15.77;;;13.67;;
1569;SDS011;778;50.120;8.698;2024-03-02T01:31:19;15.20;;;12.53;;
1569;SDS011;778;50.120;8.698;2024-03-02T01:33:48;14.50;;;13.00;;
1569;SDS011;778;50.120;8.698;2024-03-02T01:36:17;20.17;;;13.80;;
1569;SDS011;778;50.120;8.698;2024-03-02T01:38:46;16.47;;;14.73;;
1569;SDS011;778;50.120;8.698;2024-03-02T01:41:15;16.70;;;13.03;;
1569;SDS011;778;50.120;8.698;2024-03-02T01:43:45;15.60;;;13.33;;
1569;SDS011;778;50.120;8.698;2024-03-02T01:46:14;17.43;;;15.00;;
1569;SDS011;778;50.120;8.698;2024-03-02T01:48:42;15.33;;;13.03;;
1569;SDS011;778;50.120;8.698;2024-03-02T01:51:11;16.13;;;13.53;;
1569;SDS011;778;50.120;8.698;2024-03-02T01:53:40;15.80;;;14.10;;
1569;SDS011;778;50.120;8.698;2024-03-02T01:56:09;17.27;;;13.20;;
1569;SDS011;778;50.120;8.698;2024-03-02T01:58:38;16.50;;;14.40;;
1569;SDS011;778;50.120;8.698;2024-03-02T02:01:08;15.67;;;13.53;;
1569;SDS011;778;50.120;8.698;2024-03-02T02:03:37;17.90;;;14.27;;
1569;SDS011;778;50.120;8.698;2024-03-02T02:06:07;15.57;;;13.97;;
1569;SDS011;778;50.120;8.698;2024-03-02T02:08:38;16.90;;;13.73;;
1569;SDS011;778;50.120;8.698;2024-03-02T02:11:07;15.20;;;13.60;;
1569;SDS011;778;50.120;8.698;2024-03-02T02:13:36;17.03;;;14.10;;
1569;SDS011;778;50.120;8.698;2024-03-02T02:16:05;18.20;;;13.37;;
1569;SDS011;778;50.120;8.698;2024-03-02T02:18:36;15.17;;;13.10;;
1569;SDS011;778;50.120;8.698;2024-03-02T02:21:05;16.40;;;14.60;;
1569;SDS011;778;50.120;8.698;2024-03-02T02:23:35;16.50;;;13.87;;
1569;SDS011;778;50.120;8.698;2024-03-02T02:26:04;23.50;;;15.10;;
1569;SDS011;778;50.120;8.698;2024-03-02T02:28:33;15.50;;;13.90;;
1569;SDS011;778;50.120;8.698;2024-03-02T02:31:02;21.07;;;16.07;;
1569;SDS011;778;50.120;8.698;2024-03-02T02:33:31;18.17;;;16.27;;
1569;SDS011;778;50.120;8.698;2024-03-02T02:36:00;18.73;;;15.57;;
1569;SDS011;778;50.120;8.698;2024-03-02T02:38:29;19.67;;;16.10;;
1569;SDS011;778;50.120;8.698;2024-03-02T02:40:59;19.47;;;15.83;;
1569;SDS011;778;50.120;8.698;2024-03-02T02:43:27;23.80;;;15.97;;
1569;SDS011;778;50.120;8.698;2024-03-02T02:45:56;21.37;;;16.70;;
1569;SDS011;778;50.120;8.698;2024-03-02T02:48:25;23.60;;;18.00;;
1569;SDS011;778;50.120;8.698;2024-03-02T02:50:54;19.50;;;17.33;;
1569;SDS011;778;50.120;8.698;2024-03-02T02:53:22;21.13;;;18.37;;
1569;SDS011;778;50.120;8.698;2024-03-02T02:55:51;21.37;;;17.93;;
1569;SDS011;778;50.120;8.698;2024-03-02T02:58:21;21.13;;;17.13;;
1569;SDS011;778;50.120;8.698;2024-03-02T03:00:50;20.70;;;17.17;;
1569;SDS011;778;50.120;8.698;2024-03-02T03:03:21;22.30;;;17.50;;
1569;SDS011;778;50.120;8.698;2024-03-02T03:05:50;22.47;;;17.90;;
1569;SDS011;778;50.120;8.698;2024-03-02T03:08:18;20.43;;;17.17;;
1569;SDS011;778;50.120;8.698;2024-03-02T03:10:49;22.77;;;17.97;;
1569;SDS011;778;50.120;8.698;2024-03-02T03:13:18;20.27;;;17.70;;
1569;SDS011;778;50.120;8.698;2024-03-02T03:15:48;20.73;;;17.80;;
1569;SDS011;778;50.120;8.698;2024-03-02T03:18:17;21.50;;;17.63;;
1569;SDS011;778;50.120;8.698;2024-03-02T03:20:46;21.77;;;18.13;;
1569;SDS011;778;50.120;8.698;2024-03-02T03:23:15;23.00;;;18.97;;
1569;SDS011;778;50.120;8.698;2024-03-02T03:25:44;23.47;;;19.23;;
1569;SDS011;778;50.120;8.698;2024-03-02T03:28:13;27.03;;;18.70;;
1569;SDS011;778;50.120;8.698;2024-03-02T03:30:41;20.90;;;17.70;;
1569;SDS011;778;50.120;8.698;2024-03-02T03:33:12;27.33;;;18.60;;
1569;SDS011;778;50.120;8.698;2024-03-02T03:35:41;24.80;;;18.40;;
1569;SDS011;778;50.120;8.698;2024-03-02T03:38:09;21.00;;;18.20;;
1569;SDS011;778;50.120;8.698;2024-03-02T03:40:38;24.23;;;18.00;;
1569;SDS011;778;50.120;8.698;2024-03-02T03:43:07;23.87;;;19.90;;
1569;SDS011;778;50.120;8.698;2024-03-02T03:45:35;27.93;;;18.67;;
1569;SDS011;778;50.120;8.698;2024-03-02T03:48:05;22.77;;;18.30;;
1569;SDS011;778;50.120;8.698;2024-03-02T03:50:35;20.63;;;17.17;;
1569;SDS011;778;50.120;8.698;2024-03-02T03:53:04;24.97;;;19.70;;
1569;SDS011;778;50.120;8.698;2024-03-02T03:55:33;28.10;;;18.47;;
1569;SDS011;778;50.120;8.698;2024-03-02T03:58:02;26.57;;;18.30;;
1569;SDS011;778;50.120;8.698;2024-03-02T04:00:31;20.20;;;17.50;;
1569;SDS011;778;50.120;8.698;2024-03-02T04:03:00;22.40;;;17.63;;
1569;SDS011;778;50.120;8.698;2024-03-02T04:05:28;21.33;;;17.20;;
1569;SDS011;778;50.120;8.698;2024-03-02T04:07:58;24.20;;;18.97;;
1569;SDS011;778;50.120;8.698;2024-03-02T04:10:27;26.93;;;20.40;;
1569;SDS011;778;50.120;8.698;2024-03-02T04:12:56;25.17;;;19.27;;
1569;SDS011;778;50.120;8.698;2024-03-02T04:15:25;25.10;;;18.90;;
1569;SDS011;778;50.120;8.698;2024-03-02T04:17:54;23.67;;;18.50;;
1569;SDS011;778;50.120;8.698;2024-03-02T04:20:23;27.33;;;19.27;;
1569;SDS011;778;50.120;8.698;2024-03-02T04:22:52;24.40;;;20.37;;
1569;SDS011;778;50.120;8.698;2024-03-02T04:25:22;24.37;;;20.00;;
1569;SDS011;778;50.120;8.698;2024-03-02T04:27:51;22.63;;;19.30;;
1569;SDS011;778;50.120;8.698;2024-03-02T04:30:19;24.20;;;19.97;;
1569;SDS011;778;50.120;8.698;2024-03-02T04:32:48;26.70;;;20.67;;
1569;SDS011;778;50.120;8.698;2024-03-02T04:35:17;25.63;;;19.93;;
1569;SDS011;778;50.120;8.698;2024-03-02T04:37:46;29.47;;;20.87;;
1569;SDS011;778;50.120;8.698;2024-03-02T04:40:14;23.63;;;19.40;;
1569;SDS011;778;50.120;8.698;2024-03-02T04:42:45;27.30;;;19.93;;
1569;SDS011;778;50.120;8.698;2024-03-02T04:45:13;23.50;;;19.40;;
1569;SDS011;778;50.120;8.698;2024-03-02T04:47:42;26.70;;;21.30;;
1569;SDS011;778;50.120;8.698;2024-03-02T04:50:15;27.93;;;21.37;;
1569;SDS011;778;50.120;8.698;2024-03-02T04:52:44;24.30;;;20.03;;
1569;SDS011;778;50.120;8.698;2024-03-02T04:55:12;28.93;;;20.73;;
1569;SDS011;778;50.120;8.698;2024-03-02T04:58:13;31.43;;;22.90;;
1569;SDS011;778;50.120;8.698;2024-03-02T05:00:42;29.27;;;22.63;;
1569;SDS011;778;50.120;8.698;2024-03-02T05:03:13;32.70;;;21.97;;
1569;SDS011;778;50.120;8.698;2024-03-02T05:05:42;28.03;;;20.57;;
1569;SDS011;778;50.120;8.698;2024-03-02T05:08:10;27.50;;;21.90;;
1569;SDS011;778;50.120;8.698;2024-03-02T05:10:39;30.77;;;22.77;;
1569;SDS011;778;50.120;8.698;2024-03-02T05:13:08;30.07;;;22.27;;
1569;SDS011;778;50.120;8.698;2024-03-02T05:15:38;25.57;;;20.47;;
1569;SDS011;778;50.120;8.698;2024-03-02T05:18:07;28.53;;;21.07;;
1569;SDS011;778;50.120;8.698;2024-03-02T05:20:36;27.60;;;21.10;;
1569;SDS011;778;50.120;8.698;2024-03-02T05:23:05;30.50;;;22.40;;
1569;SDS011;778;50.120;8.698;2024-03-02T05:25:33;30.13;;;22.10;;
1569;SDS011;778;50.120;8.698;2024-03-02T05:28:02;28.40;;;22.57;;
1569;SDS011;778;50.120;8.698;2024-03-02T05:30:32;27.60;;;22.57;;
1569;SDS011;778;50.120;8.698;2024-03-02T05:33:02;27.03;;;22.30;;
1569;SDS011;778;50.120;8.698;2024-03-02T05:35:31;27.13;;;21.77;;
1569;SDS011;778;50.120;8.698;2024-03-02T05:38:00;29.03;;;21.80;;
1569;SDS011;778;50.120;8.698;2024-03-02T05:40:28;29.43;;;21.83;;
1569;SDS011;778;50.120;8.698;2024-03-02T05:42:57;28.90;;;22.97;;
1569;SDS011;778;50.120;8.698;2024-03-02T05:45:26;25.80;;;21.53;;
1569;SDS011;778;50.120;8.698;2024-03-02T05:47:55;27.73;;;21.30;;
1569;SDS011;778;50.120;8.698;2024-03-02T05:50:26;29.57;;;22.47;;
1569;SDS011;778;50.120;8.698;2024-03-02T05:52:55;30.97;;;22.70;;
1569;SDS011;778;50.120;8.698;2024-03-02T05:55:25;28.83;;;21.60;;
1569;SDS011;778;50.120;8.698;2024-03-02T05:57:54;33.03;;;24.30;;
1569;SDS011;778;50.120;8.698;2024-03-02T06:00:38;36.43;;;23.10;;
1569;SDS011;778;50.120;8.698;2024-03-02T06:03:07;29.67;;;22.33;;
1569;SDS011;778;50.120;8.698;2024-03-02T06:05:37;28.10;;;21.07;;
1569;SDS011;778;50.120;8.698;2024-03-02T06:08:07;30.00;;;22.60;;
1569;SDS011;778;50.120;8.698;2024-03-02T06:10:36;30.57;;;22.17;;
1569;SDS011;778;50.120;8.698;2024-03-02T06:13:04;28.47;;;21.70;;
1569;SDS011;778;50.120;8.698;2024-03-02T06:15:33;35.97;;;24.77;;
1569;SDS011;778;50.120;8.698;2024-03-02T06:18:03;35.03;;;23.70;;
1569;SDS011;778;50.120;8.698;2024-03-02T06:20:33;29.53;;;23.13;;
1569;SDS011;778;50.120;8.698;2024-03-02T06:23:04;29.97;;;23.40;;
1569;SDS011;778;50.120;8.698;2024-03-02T06:25:33;29.13;;;23.30;;
1569;SDS011;778;50.120;8.698;2024-03-02T06:28:02;31.50;;;23.40;;
1569;SDS011;778;50.120;8.698;2024-03-02T06:30:31;31.30;;;22.70;;
1569;SDS011;778;50.120;8.698;2024-03-02T06:33:00;29.80;;;22.40;;
1569;SDS011;778;50.120;8.698;2024-03-02T06:35:30;30.47;;;23.03;;
1569;SDS011;778;50.120;8.698;2024-03-02T06:37:59;29.23;;;21.73;;
1569;SDS011;778;50.120;8.698;2024-03-02T06:40:29;29.93;;;22.83;;
1569;SDS011;778;50.120;8.698;2024-03-02T06:42:58;27.27;;;21.37;;
1569;SDS011;778;50.120;8.698;2024-03-02T06:45:27;28.27;;;20.80;;
1569;SDS011;778;50.120;8.698;2024-03-02T06:47:57;29.70;;;22.47;;
1569;SDS011;778;50.120;8.698;2024-03-02T06:50:26;26.50;;;20.83;;
1569;SDS011;778;50.120;8.698;2024-03-02T06:52:55;28.50;;;21.60;;
1569;SDS011;778;50.120;8.698;2024-03-02T06:55:23;29.70;;;21.17;;
1569;SDS011;778;50.120;8.698;2024-03-02T06:57:53;28.87;;;21.70;;
1569;SDS011;778;50.120;8.698;2024-03-02T07:00:22;29.63;;;21.00;;
1569;SDS011;778;50.120;8.698;2024-03-02T07:02:51;28.47;;;21.43;;
1569;SDS011;778;50.120;8.698;2024-03-02T07:05:20;27.07;;;20.57;;
1569;SDS011;778;50.120;8.698;2024-03-02T07:07:48;29.47;;;22.20;;
1569;SDS011;778;50.120;8.698;2024-03-02T07:10:17;29.00;;;22.57;;
1569;SDS011;778;50.120;8.698;2024-03-02T07:12:46;26.07;;;20.63;;
1569;SDS011;778;50.120;8.698;2024-03-02T07:15:16;28.77;;;20.80;;
1569;SDS011;778;50.120;8.698;2024-03-02T07:18:13;29.13;;;21.50;;
1569;SDS011;778;50.120;8.698;2024-03-02T07:20:42;29.70;;;21.77;;
1569;SDS011;778;50.120;8.698;2024-03-02T07:23:11;26.67;;;20.17;;
1569;SDS011;778;50.120;8.698;2024-03-02T07:25:40;29.10;;;22.47;;
1569;SDS011;778;50.120;8.698;2024-03-02T07:28:11;28.00;;;21.70;;
1569;SDS011;778;50.120;8.698;2024-03-02T07:30:42;27.30;;;20.53;;
1569;SDS011;778;50.120;8.698;2024-03-02T07:33:11;25.13;;;19.43;;
1569;SDS011;778;50.120;8.698;2024-03-02T07:35:40;24.10;;;20.43;;
1569;SDS011;778;50.120;8.698;2024-03-02T07:38:09;24.67;;;20.30;;
1569;SDS011;778;50.120;8.698;2024-03-02T07:40:39;30.07;;;23.00;;
1569;SDS011;778;50.120;8.698;2024-03-02T07:43:07;29.00;;;22.10;;
1569;SDS011;778;50.120;8.698;2024-03-02T07:45:36;28.40;;;22.53;;
1569;SDS011;778;50.120;8.698;2024-03-02T07:48:07;27.93;;;20.70;;
1569;SDS011;778;50.120;8.698;2024-03-02T07:50:35;27.67;;;21.33;;
1569;SDS011;778;50.120;8.698;2024-03-02T07:53:05;28.53;;;23.07;;
1569;SDS011;778;50.120;8.698;2024-03-02T07:55:34;28.03;;;22.07;;
1569;SDS011;778;50.120;8.698;2024-03-02T07:58:03;31.33;;;23.00;;
1569;SDS011;778;50.120;8.698;2024-03-02T08:00:33;29.60;;;23.27;;
1569;SDS011;778;50.120;8.698;2024-03-02T08:03:02;29.07;;;23.40;;
1569;SDS011;778;50.120;8.698;2024-03-02T08:05:32;29.10;;;21.30;;
1569;SDS011;778;50.120;8.698;2024-03-02T08:08:01;28.10;;;22.10;;
1569;SDS011;778;50.120;8.698;2024-03-02T08:10:29;29.10;;;21.70;;
1569;SDS011;778;50.120;8.698;2024-03-02T08:13:00;28.00;;;22.60;;
1569;SDS011;778;50.120;8.698;2024-03-02T08:15:29;22.97;;;19.23;;
1569;SDS011;778;50.120;8.698;2024-03-02T08:17:57;25.77;;;21.13;;
1569;SDS011;778;50.120;8.698;2024-03-02T08:20:26;26.33;;;21.50;;
1569;SDS011;778;50.120;8.698;2024-03-02T08:22:56;25.37;;;20.97;;
1569;SDS011;778;50.120;8.698;2024-03-02T08:25:25;24.70;;;20.57;;
1569;SDS011;778;50.120;8.698;2024-03-02T08:27:54;29.67;;;21.10;;
1569;SDS011;778;50.120;8.698;2024-03-02T08:30:24;23.60;;;18.83;;
1569;SDS011;778;50.120;8.698;2024-03-02T08:32:52;20.60;;;17.23;;
1569;SDS011;778;50.120;8.698;2024-03-02T08:35:21;26.20;;;18.90;;
1569;SDS011;778;50.120;8.698;2024-03-02T08:37:50;24.33;;;16.90;;
1569;SDS011;778;50.120;8.698;2024-03-02T08:40:20;20.17;;;16.97;;
1569;SDS011;778;50.120;8.698;2024-03-02T08:42:49;17.37;;;15.47;;
1569;SDS011;778;50.120;8.698;2024-03-02T08:45:18;18.60;;;16.00;;
1569;SDS011;778;50.120;8.698;2024-03-02T08:47:47;21.00;;;18.07;;
1569;SDS011;778;50.120;8.698;2024-03-02T08:50:16;20.50;;;16.87;;
1569;SDS011;778;50.120;8.698;2024-03-02T08:52:45;20.17;;;15.47;;
1569;SDS011;778;50.120;8.698;2024-03-02T08:55:14;21.57;;;16.27;;
1569;SDS011;778;50.120;8.698;2024-03-02T08:57:44;20.33;;;16.60;;
1569;SDS011;778;50.120;8.698;2024-03-02T09:00:13;19.87;;;17.77;;
1569;SDS011;778;50.120;8.698;2024-03-02T09:02:43;20.30;;;17.53;;
1569;SDS011;778;50.120;8.698;2024-03-02T09:05:12;19.67;;;16.67;;
1569;SDS011;778;50.120;8.698;2024-03-02T09:07:41;17.23;;;15.17;;
1569;SDS011;778;50.120;8.698;2024-03-02T09:10:10;19.10;;;15.90;;
1569;SDS011;778;50.120;8.698;2024-03-02T09:12:39;21.10;;;17.07;;
1569;SDS011;778;50.120;8.698;2024-03-02T09:15:09;17.27;;;15.00;;
1569;SDS011;778;50.120;8.698;2024-03-02T09:17:38;18.57;;;15.33;;
1569;SDS011;778;50.120;8.698;2024-03-02T09:20:07;16.13;;;14.37;;
1569;SDS011;778;50.120;8.698;2024-03-02T09:22:38;17.20;;;14.77;;
1569;SDS011;778;50.120;8.698;2024-03-02T09:25:08;15.97;;;14.20;;
1569;SDS011;778;50.120;8.698;2024-03-02T09:27:36;16.60;;;14.87;;
1569;SDS011;778;50.120;8.698;2024-03-02T09:30:07;18.40;;;14.37;;
1569;SDS011;778;50.120;8.698;2024-03-02T09:32:40;38.63;;;16.90;;
1569;SDS011;778;50.120;8.698;2024-03-02T09:35:10;19.57;;;15.40;;
1569;SDS011;778;50.120;8.698;2024-03-02T09:37:39;17.00;;;14.87;;
1569;SDS011;778;50.120;8.698;2024-03-02T09:40:08;15.83;;;13.37;;
1569;SDS011;778;50.120;8.698;2024-03-02T09:42:38;15.13;;;13.53;;
1569;SDS011;778;50.120;8.698;2024-03-02T09:45:08;13.53;;;12.13;;
1569;SDS011;778;50.120;8.698;2024-03-02T09:47:38;15.20;;;13.17;;
1569;SDS011;778;50.120;8.698;2024-03-02T09:50:07;15.40;;;13.60;;
1569;SDS011;778;50.120;8.698;2024-03-02T09:52:37;19.40;;;14.30;;
1569;SDS011;778;50.120;8.698;2024-03-02T09:55:06;16.87;;;14.30;;
1569;SDS011;778;50.120;8.698;2024-03-02T09:57:35;16.97;;;14.67;;
1569;SDS011;778;50.120;8.698;2024-03-02T10:00:07;17.03;;;14.70;;
1569;SDS011;778;50.120;8.698;2024-03-02T10:02:42;21.07;;;15.33;;
1569;SDS011;778;50.120;8.698;2024-03-02T10:05:12;20.20;;;17.60;;
1569;SDS011;778;50.120;8.698;2024-03-02T10:07:41;15.20;;;13.60;;
1569;SDS011;778;50.120;8.698;2024-03-02T10:10:13;20.50;;;16.40;;
1569;SDS011;778;50.120;8.698;2024-03-02T10:12:42;17.73;;;15.83;;
1569;SDS011;778;50.120;8.698;2024-03-02T10:15:11;17.60;;;15.33;;
1569;SDS011;778;50.120;8.698;2024-03-02T10:17:40;16.40;;;14.63;;
1569;SDS011;778;50.120;8.698;2024-03-02T10:20:23;14.30;;;12.90;;
1569;SDS011;778;50.120;8.698;2024-03-02T10:22:52;14.23;;;12.10;;
1569;SDS011;778;50.120;8.698;2024-03-02T10:25:30;15.20;;;13.47;;
1569;SDS011;778;50.120;8.698;2024-03-02T10:28:03;15.70;;;14.10;;
1569;SDS011;778;50.120;8.698;2024-03-02T10:30:33;15.20;;;13.60;;
1569;SDS011;778;50.120;8.698;2024-03-02T10:33:03;15.10;;;13.50;;
1569;SDS011;778;50.120;8.698;2024-03-02T10:35:33;15.33;;;13.63;;
1569;SDS011;778;50.120;8.698;2024-03-02T10:38:03;16.27;;;14.07;;
1569;SDS011;778;50.120;8.698;2024-03-02T10:40:33;14.33;;;12.83;;
1569;SDS011;778;50.120;8.698;2024-03-02T10:43:01;16.73;;;14.30;;
1569;SDS011;778;50.120;8.698;2024-03-02T10:45:32;13.70;;;11.50;;
1569;SDS011;778;50.120;8.698;2024-03-02T10:48:03;12.53;;;10.97;;
1569;SDS011;778;50.120;8.698;2024-03-02T10:50:32;11.27;;;10.07;;
1569;SDS011;778;50.120;8.698;2024-03-02T10:53:01;11.73;;;10.53;;
1569;SDS011;778;50.120;8.698;2024-03-02T10:55:32;13.60;;;11.07;;
1569;SDS011;778;50.120;8.698;2024-03-02T10:58:01;13.93;;;12.57;;
1569;SDS011;778;50.120;8.698;2024-03-02T11:00:34;12.80;;;11.40;;
1569;SDS011;778;50.120;8.698;2024-03-02T11:03:07;12.87;;;11.53;;
1569;SDS011;778;50.120;8.698;2024-03-02T11:05:36;12.90;;;11.37;;
1569;SDS011;778;50.120;8.698;2024-03-02T11:08:08;13.07;;;11.37;;
1569;SDS011;778;50.120;8.698;2024-03-02T11:10:41;12.00;;;10.60;;
1569;SDS011;778;50.120;8.698;2024-03-02T11:13:14;11.70;;;10.60;;
1569;SDS011;778;50.120;8.698;2024-03-02T11:15:43;12.80;;;10.80;;
1569;SDS011;778;50.120;8.698;2024-03-02T11:18:14;12.40;;;11.10;;
1569;SDS011;778;50.120;8.698;2024-03-02T11:20:43;12.93;;;11.63;;
1569;SDS011;778;50.120;8.698;2024-03-02T11:23:13;12.47;;;11.10;;
1569;SDS011;778;50.120;8.698;2024-03-02T11:25:41;11.77;;;10.70;;
1569;SDS011;778;50.120;8.698;2024-03-02T11:28:10;12.00;;;10.90;;
1569;SDS011;778;50.120;8.698;2024-03-02T11:30:51;12.10;;;10.80;;
1569;SDS011;778;50.120;8.698;2024-03-02T11:33:25;10.93;;;9.90;;
1569;SDS011;778;50.120;8.698;2024-03-02T11:35:57;13.93;;;12.27;;
1569;SDS011;778;50.120;8.698;2024-03-02T11:38:30;10.37;;;9.00;;
1569;SDS011;778;50.120;8.698;2024-03-02T11:41:00;9.57;;;8.63;;
1569;SDS011;778;50.120;8.698;2024-03-02T11:43:29;10.00;;;8.90;;
1569;SDS011;778;50.120;8.698;2024-03-02T11:46:00;13.63;;;12.23;;
1569;SDS011;778;50.120;8.698;2024-03-02T11:48:36;9.10;;;8.00;;
1569;SDS011;778;50.120;8.698;2024-03-02T11:51:06;10.23;;;8.23;;
1569;SDS011;778;50.120;8.698;2024-03-02T11:53:35;9.20;;;8.30;;
1569;SDS011;778;50.120;8.698;2024-03-02T11:56:04;8.50;;;7.70;;
1569;SDS011;778;50.120;8.698;2024-03-02T11:58:35;8.70;;;7.90;;
1569;SDS011;778;50.120;8.698;2024-03-02T12:01:05;9.03;;;8.13;;
1569;SDS011;778;50.120;8.698;2024-03-02T12:03:35;8.13;;;7.30;;
1569;SDS011;778;50.120;8.698;2024-03-02T12:06:04;7.17;;;6.47;;
1569;SDS011;778;50.120;8.698;2024-03-02T12:08:33;7.90;;;7.20;;
1569;SDS011;778;50.120;8.698;2024-03-02T12:11:03;8.30;;;7.33;;
1569;SDS011;778;50.120;8.698;2024-03-02T12:13:33;7.80;;;7.10;;
1569;SDS011;778;50.120;8.698;2024-03-02T12:16:02;8.27;;;7.47;;
1569;SDS011;778;50.120;8.698;2024-03-02T12:18:31;8.40;;;7.60;;
1569;SDS011;778;50.120;8.698;2024-03-02T12:21:02;8.77;;;7.33;;
1569;SDS011;778;50.120;8.698;2024-03-02T12:23:33;7.23;;;6.53;;
1569;SDS011;778;50.120;8.698;2024-03-02T12:26:02;9.50;;;8.20;;
1569;SDS011;778;50.120;8.698;2024-03-02T12:28:31;7.13;;;6.40;;
1569;SDS011;778;50.120;8.698;2024-03-02T12:31:01;5.90;;;5.40;;
1569;SDS011;778;50.120;8.698;2024-03-02T12:33:30;6.77;;;6.07;;
1569;SDS011;778;50.120;8.698;2024-03-02T12:35:59;9.13;;;6.40;;
1569;SDS011;778;50.120;8.698;2024-03-02T12:38:29;6.67;;;6.07;;
1569;SDS011;778;50.120;8.698;2024-03-02T12:40:57;6.97;;;5.90;;
1569;SDS011;778;50.120;8.698;2024-03-02T12:43:29;6.47;;;5.97;;
1569;SDS011;778;50.120;8.698;2024-03-02T12:45:58;6.20;;;5.60;;
1569;SDS011;778;50.120;8.698;2024-03-02T12:48:27;6.27;;;5.67;;
1569;SDS011;778;50.120;8.698;2024-03-02T12:50:56;6.53;;;5.90;;
1569;SDS011;778;50.120;8.698;2024-03-02T12:53:25;7.83;;;7.03;;
1569;SDS011;778;50.120;8.698;2024-03-02T12:55:55;6.90;;;6.30;;
1569;SDS011;778;50.120;8.698;2024-03-02T12:58:24;9.10;;;6.07;;
1569;SDS011;778;50.120;8.698;2024-03-02T13:01:05;8.00;;;5.80;;
1569;SDS011;778;50.120;8.698;2024-03-02T13:03:36;6.63;;;5.47;;
1569;SDS011;778;50.120;8.698;2024-03-02T13:06:05;6.63;;;5.97;;
1569;SDS011;778;50.120;8.698;2024-03-02T13:08:35;5.23;;;4.73;;
1569;SDS011;778;50.120;8.698;2024-03-02T13:11:05;5.50;;;5.00;;
1569;SDS011;778;50.120;8.698;2024-03-02T13:13:34;7.70;;;6.00;;
1569;SDS011;778;50.120;8.698;2024-03-02T13:16:03;5.57;;;4.40;;
1569;SDS011;778;50.120;8.698;2024-03-02T13:18:34;5.70;;;5.20;;
1569;SDS011;778;50.120;8.698;2024-03-02T13:21:03;4.60;;;4.20;;
1569;SDS011;778;50.120;8.698;2024-03-02T13:23:31;4.67;;;4.20;;
1569;SDS011;778;50.120;8.698;2024-03-02T13:26:00;5.03;;;4.60;;
1569;SDS011;778;50.120;8.698;2024-03-02T13:28:31;5.90;;;5.00;;
1569;SDS011;778;50.120;8.698;2024-03-02T13:30:59;5.63;;;4.97;;
1569;SDS011;778;50.120;8.698;2024-03-02T13:33:28;4.63;;;4.03;;
1569;SDS011;778;50.120;8.698;2024-03-02T13:35:59;3.43;;;3.13;;
1569;SDS011;778;50.120;8.698;2024-03-02T13:38:29;4.60;;;3.60;;
1569;SDS011;778;50.120;8.698;2024-03-02T13:40:58;4.27;;;3.90;;
1569;SDS011;778;50.120;8.698;2024-03-02T13:43:27;4.50;;;4.10;;
1569;SDS011;778;50.120;8.698;2024-03-02T13:45:59;5.43;;;4.37;;
1569;SDS011;778;50.120;8.698;2024-03-02T13:48:29;4.57;;;4.17;;
1569;SDS011;778;50.120;8.698;2024-03-02T13:50:58;5.60;;;4.10;;
1569;SDS011;778;50.120;8.698;2024-03-02T13:53:27;5.60;;;4.20;;
1569;SDS011;778;50.120;8.698;2024-03-02T13:55:55;7.30;;;4.00;;
1569;SDS011;778;50.120;8.698;2024-03-02T13:58:24;4.70;;;4.30;;
1569;SDS011;778;50.120;8.698;2024-03-02T14:00:53;4.37;;;3.70;;
1569;SDS011;778;50.120;8.698;2024-03-02T14:03:25;4.73;;;3.40;;
1569;SDS011;778;50.120;8.698;2024-03-02T14:05:57;3.30;;;3.00;;
1569;SDS011;778;50.120;8.698;2024-03-02T14:08:26;4.77;;;3.67;;
1569;SDS011;778;50.120;8.698;2024-03-02T14:10:55;4.00;;;3.30;;
1569;SDS011;778;50.120;8.698;2024-03-02T14:13:27;4.13;;;3.73;;
1569;SDS011;778;50.120;8.698;2024-03-02T14:15:58;3.70;;;3.40;;
1569;SDS011;778;50.120;8.698;2024-03-02T14:18:28;4.23;;;2.97;;
1569;SDS011;778;50.120;8.698;2024-03-02T14:20:57;3.27;;;2.97;;
1569;SDS011;778;50.120;8.698;2024-03-02T14:23:26;3.70;;;3.00;;
1569;SDS011;778;50.120;8.698;2024-03-02T14:25:55;3.60;;;2.70;;
1569;SDS011;778;50.120;8.698;2024-03-02T14:28:25;4.90;;;2.97;;
1569;SDS011;778;50.120;8.698;2024-03-02T14:31:14;3.33;;;2.73;;
1569;SDS011;778;50.120;8.698;2024-03-02T14:33:44;3.77;;;2.20;;
1569;SDS011;778;50.120;8.698;2024-03-02T14:36:13;2.40;;;2.20;;
1569;SDS011;778;50.120;8.698;2024-03-02T14:38:42;2.63;;;2.20;;
1569;SDS011;778;50.120;8.698;2024-03-02T14:41:11;4.03;;;3.63;;
1569;SDS011;778;50.120;8.698;2024-03-02T14:43:40;2.93;;;2.30;;
1569;SDS011;778;50.120;8.698;2024-03-02T14:46:12;3.30;;;2.20;;
1569;SDS011;778;50.120;8.698;2024-03-02T14:48:41;2.80;;;2.60;;
1569;SDS011;778;50.120;8.698;2024-03-02T14:51:21;3.47;;;2.50;;
1569;SDS011;778;50.120;8.698;2024-03-02T14:53:50;1.77;;;1.67;;
1569;SDS011;778;50.120;8.698;2024-03-02T14:56:20;3.37;;;2.70;;
1569;SDS011;778;50.120;8.698;2024-03-02T14:58:56;2.30;;;2.03;;
1569;SDS011;778;50.120;8.698;2024-03-02T15:01:25;1.90;;;1.80;;
1569;SDS011;778;50.120;8.698;2024-03-02T15:03:54;2.37;;;2.00;;
1569;SDS011;778;50.120;8.698;2024-03-02T15:06:24;2.17;;;1.97;;
1569;SDS011;778;50.120;8.698;2024-03-02T15:08:53;2.40;;;1.47;;
1569;SDS011;778;50.120;8.698;2024-03-02T15:11:22;2.53;;;2.10;;
1569;SDS011;778;50.120;8.698;2024-03-02T15:13:51;3.20;;;2.33;;
1569;SDS011;778;50.120;8.698;2024-03-02T15:16:24;2.23;;;1.93;;
1569;SDS011;778;50.120;8.698;2024-03-02T15:18:55;1.83;;;1.67;;
1569;SDS011;778;50.120;8.698;2024-03-02T15:21:25;2.57;;;2.20;;
1569;SDS011;778;50.120;8.698;2024-03-02T15:23:54;3.03;;;1.80;;
1569;SDS011;778;50.120;8.698;2024-03-02T15:26:24;3.83;;;2.37;;